Tesuque, New Mexico
Current Conditions -  °F | °C
As of 7:53 AM on Thursday 30 Oct 2014 (Local Time) from KSAF Reporting Station
Clear Clear  
Wind Chill: 30°   Ceiling: Unl
Heat Index: 39°   Visibility: 10mi
Dew Point: 12°   Wind: 16mph
Humidity: 33%   Direction: 10°N
Pressure: 30.33"   Gusts: NA
Location:  35.76°N, 105.94°W
Report Text: KSAF 301353Z 01014KT 10SM CLR 04/M11 A3033 RMK AO2 SLP234 T00391111
Loading
Personal Weather Stations






























Interactive Weather Map
Tropical Storm Tracking
New forecast layout! Learn more

10-Day Weather Forecast

Advertisements
Track Severe Weather on mobile